メインページ
METAR-TAF:

METAR-TAF

空港 :

ブリュッセル, ベルギー

ブリュッセル空港

緯度: 50-54N, 経度: 004-32E, 海抜: 55m

現時点の気象観測

当レポートは18分前の10:20(UTC)に作成
西の風 10kt
気温 6°C
湿度 81%
気圧 1020 hPa
視程10km以上
高度4400ftの雲は散在している
小雨

METAR: EBBR 191020Z 28010KT 9999 -RA SCT044 06/03 Q1020 NOSIG

時間: 11:38 (10:38 UTC)

予報

当レポートは5時間38分前の05:00(UTC)に作成
予報は19日の 06時(UTC)から 20日の 12時(UTC)まで有効
西の風 7kt
視程10km以上
高度2500ftの雲はほとんどない
高度4000ftの雲は散在している
20日の 09時(UTC)から 20日の 11時(UTC)まで徐々に
南/南西の風 15kt、最大25ktの突風を伴う
高度1000ftの雲は散在している
高度1400ftの千切れ雲あり
20日の 10時(UTC)から 20日の 12時(UTC)まで一時的に
視程: 4500m
雨, 霧雨

TAF: EBBR 190500Z 1906/2012 27007KT 9999 FEW025 SCT040 BECMG 2009/2011 21015G25KT SCT010 BKN014 TEMPO 2010/2012 4500 RADZ

4,000以上の空港の気象観測と天気予報(METAR報とTAF報)

利用可能な観測所は地図上に黄色い丸と赤い丸で示す。

丸の上にカーソルを重ねると観測所名を参照できる。

次にクリックすると気象観測と天気予報を参照できる。

マップの切り替え:黒色「×」印の緑ボタンをクリックして拡大、「-」印の緑ボタンをクリックして縮小、緑色の三角印をクリックして隣りの地図に切り替え


METAR-TAF: